Time;durP1;ratioP1;P1;durP2;ratioP2;P2;SDS_P1;SDS_P2;PMS_P1;PMS_P2;Temp;Humidity;BMP_temperature;BMP_pressure;BME280_temperature;BME280_humidity;BME280_pressure;Samples;Min_cycle;Max_cycle;Signal;HPM_P1;HPM_P2
2020/08/16 00:01:09;;;;;;;4.7;0.9;;;;;;;;;;;;;
2020/08/16 00:03:34;;;;;;;3.6;0.8;;;;;;;;;;;;;
2020/08/16 00:05:59;;;;;;;0.6;0.4;;;;;;;;;;;;;
2020/08/16 00:08:26;;;;;;;0.4;0.4;;;;;;;;;;;;;
2020/08/16 00:10:51;;;;;;;0.6;0.4;;;;;;;;;;;;;
2020/08/16 00:13:16;;;;;;;1.3;0.8;;;;;;;;;;;;;
2020/08/16 00:15:41;;;;;;;1.2;0.5;;;;;;;;;;;;;
2020/08/16 00:18:06;;;;;;;0.9;0.5;;;;;;;;;;;;;
2020/08/16 00:20:33;;;;;;;0.8;0.7;;;;;;;;;;;;;
2020/08/16 00:22:58;;;;;;;1.2;0.7;;;;;;;;;;;;;
2020/08/16 00:25:25;;;;;;;1.5;0.7;;;;;;;;;;;;;
2020/08/16 00:27:50;;;;;;;0.4;0.4;;;;;;;;;;;;;
2020/08/16 00:30:18;;;;;;;0.3;0.3;;;;;;;;;;;;;
2020/08/16 00:32:43;;;;;;;0.8;0.5;;;;;;;;;;;;;
2020/08/16 00:35:09;;;;;;;0.6;0.4;;;;;;;;;;;;;
2020/08/16 00:37:34;;;;;;;0.7;0.7;;;;;;;;;;;;;
2020/08/16 00:39:59;;;;;;;0.6;0.4;;;;;;;;;;;;;
2020/08/16 00:42:24;;;;;;;1;0.8;;;;;;;;;;;;;
2020/08/16 00:44:51;;;;;;;0.6;0.5;;;;;;;;;;;;;
2020/08/16 00:47:16;;;;;;;1.3;0.7;;;;;;;;;;;;;
2020/08/16 00:49:42;;;;;;;0.8;0.4;;;;;;;;;;;;;
2020/08/16 00:52:07;;;;;;;0.5;0.5;;;;;;;;;;;;;
2020/08/16 00:54:36;;;;;;;0.9;0.5;;;;;;;;;;;;;
2020/08/16 00:59:26;;;;;;;0.4;0.4;;;;;;;;;;;;;
2020/08/16 01:01:51;;;;;;;0.5;0.4;;;;;;;;;;;;;
2020/08/16 01:04:20;;;;;;;0.9;0.7;;;;;;;;;;;;;
2020/08/16 01:06:45;;;;;;;0.8;0.5;;;;;;;;;;;;;
2020/08/16 01:09:10;;;;;;;1;0.4;;;;;;;;;;;;;
2020/08/16 01:11:35;;;;;;;1;0.7;;;;;;;;;;;;;
2020/08/16 01:14:01;;;;;;;1.3;0.8;;;;;;;;;;;;;
2020/08/16 01:16:26;;;;;;;1.2;0.8;;;;;;;;;;;;;
2020/08/16 01:18:53;;;;;;;0.9;0.7;;;;;;;;;;;;;
2020/08/16 01:21:17;;;;;;;1.8;0.9;;;;;;;;;;;;;
2020/08/16 01:23:43;;;;;;;0.9;0.5;;;;;;;;;;;;;
2020/08/16 01:26:08;;;;;;;0.4;0.4;;;;;;;;;;;;;
2020/08/16 01:28:33;;;;;;;0.7;0.7;;;;;;;;;;;;;
2020/08/16 01:30:59;;;;;;;0.8;0.4;;;;;;;;;;;;;
2020/08/16 01:33:24;;;;;;;0.6;0.4;;;;;;;;;;;;;
2020/08/16 01:35:49;;;;;;;0.7;0.5;;;;;;;;;;;;;
2020/08/16 01:38:15;;;;;;;0.5;0.4;;;;;;;;;;;;;
2020/08/16 01:40:40;;;;;;;2;0.8;;;;;;;;;;;;;
2020/08/16 01:43:09;;;;;;;0.5;0.4;;;;;;;;;;;;;
2020/08/16 01:45:34;;;;;;;0.5;0.4;;;;;;;;;;;;;
2020/08/16 01:47:59;;;;;;;0.8;0.6;;;;;;;;;;;;;
2020/08/16 01:50:25;;;;;;;2.7;0.8;;;;;;;;;;;;;
2020/08/16 01:52:50;;;;;;;3.2;0.7;;;;;;;;;;;;;
2020/08/16 01:55:16;;;;;;;1.7;0.9;;;;;;;;;;;;;
2020/08/16 01:57:42;;;;;;;0.7;0.6;;;;;;;;;;;;;
2020/08/16 02:00:08;;;;;;;1.5;0.7;;;;;;;;;;;;;
2020/08/16 02:02:33;;;;;;;1;0.6;;;;;;;;;;;;;
2020/08/16 02:05:00;;;;;;;2.3;0.4;;;;;;;;;;;;;
2020/08/16 02:07:25;;;;;;;0.4;0.3;;;;;;;;;;;;;
2020/08/16 02:09:52;;;;;;;3.5;1.1;;;;;;;;;;;;;
2020/08/16 02:12:17;;;;;;;1.4;0.7;;;;;;;;;;;;;
2020/08/16 02:14:42;;;;;;;1;0.6;;;;;;;;;;;;;
2020/08/16 02:17:07;;;;;;;1;0.7;;;;;;;;;;;;;
2020/08/16 02:19:33;;;;;;;1.1;0.6;;;;;;;;;;;;;
2020/08/16 02:21:58;;;;;;;0.5;0.5;;;;;;;;;;;;;
2020/08/16 02:24:23;;;;;;;0.4;0.4;;;;;;;;;;;;;
2020/08/16 02:26:48;;;;;;;0.6;0.5;;;;;;;;;;;;;
2020/08/16 02:29:13;;;;;;;2;0.6;;;;;;;;;;;;;
2020/08/16 02:31:41;;;;;;;0.8;0.4;;;;;;;;;;;;;
2020/08/16 02:34:06;;;;;;;0.8;0.6;;;;;;;;;;;;;
2020/08/16 02:36:33;;;;;;;0.8;0.5;;;;;;;;;;;;;
2020/08/16 02:38:58;;;;;;;0.7;0.4;;;;;;;;;;;;;
2020/08/16 02:41:25;;;;;;;1.1;0.6;;;;;;;;;;;;;
2020/08/16 02:43:50;;;;;;;1.2;0.9;;;;;;;;;;;;;
2020/08/16 02:46:15;;;;;;;0.8;0.5;;;;;;;;;;;;;
2020/08/16 02:48:40;;;;;;;0.9;0.7;;;;;;;;;;;;;
2020/08/16 02:51:06;;;;;;;0.7;0.6;;;;;;;;;;;;;
2020/08/16 02:53:31;;;;;;;0.7;0.7;;;;;;;;;;;;;
2020/08/16 02:55:56;;;;;;;2.6;0.7;;;;;;;;;;;;;
2020/08/16 02:58:21;;;;;;;1.6;0.6;;;;;;;;;;;;;
2020/08/16 03:00:46;;;;;;;1;0.7;;;;;;;;;;;;;
2020/08/16 03:03:11;;;;;;;2.1;0.8;;;;;;;;;;;;;
2020/08/16 03:05:36;;;;;;;0.9;0.7;;;;;;;;;;;;;
2020/08/16 03:08:02;;;;;;;0.6;0.6;;;;;;;;;;;;;
2020/08/16 03:10:27;;;;;;;0.9;0.6;;;;;;;;;;;;;
2020/08/16 03:12:54;;;;;;;0.8;0.6;;;;;;;;;;;;;
2020/08/16 03:15:19;;;;;;;0.3;0.3;;;;;;;;;;;;;
2020/08/16 03:17:44;;;;;;;1.1;0.6;;;;;;;;;;;;;
2020/08/16 03:20:09;;;;;;;1.4;0.8;;;;;;;;;;;;;
2020/08/16 03:22:35;;;;;;;2.2;0.8;;;;;;;;;;;;;
2020/08/16 03:24:59;;;;;;;2.3;0.9;;;;;;;;;;;;;
2020/08/16 03:27:25;;;;;;;1;0.6;;;;;;;;;;;;;
2020/08/16 03:29:50;;;;;;;2.1;0.9;;;;;;;;;;;;;
2020/08/16 03:32:15;;;;;;;3.5;0.8;;;;;;;;;;;;;
2020/08/16 03:34:40;;;;;;;0.7;0.5;;;;;;;;;;;;;
2020/08/16 03:37:05;;;;;;;2.7;1.1;;;;;;;;;;;;;
2020/08/16 03:39:31;;;;;;;0.7;0.5;;;;;;;;;;;;;
2020/08/16 03:41:56;;;;;;;0.8;0.5;;;;;;;;;;;;;
2020/08/16 03:44:21;;;;;;;1.9;1;;;;;;;;;;;;;
2020/08/16 03:46:46;;;;;;;0.7;0.6;;;;;;;;;;;;;
2020/08/16 03:49:12;;;;;;;0.7;0.6;;;;;;;;;;;;;
2020/08/16 03:51:37;;;;;;;0.8;0.5;;;;;;;;;;;;;
2020/08/16 03:54:02;;;;;;;1.7;0.7;;;;;;;;;;;;;
2020/08/16 03:56:27;;;;;;;1.7;1;;;;;;;;;;;;;
2020/08/16 03:58:52;;;;;;;4.3;1.3;;;;;;;;;;;;;
2020/08/16 04:02:35;;;;;;;1;0.7;;;;;;;15.85;91.49316;935.545;;;;
2020/08/16 04:05:01;;;;;;;0.6;0.6;;;;;;;15.59;93.22852;935.4753;;;;
2020/08/16 04:07:26;;;;;;;1;0.6;;;;;;;15.71;93.13867;935.4803;;;;
2020/08/16 04:09:51;;;;;;;1.2;0.5;;;;;;;15.74;92.82031;935.4662;;;;
2020/08/16 04:12:16;;;;;;;0.6;0.6;;;;;;;15.86;92.62793;935.4871;;;;
2020/08/16 04:14:44;;;;;;;0.6;0.5;;;;;;;15.95;91.24805;935.4447;;;;
2020/08/16 04:17:12;;;;;;;2.6;0.9;;;;;;;15.89;92.11523;935.4609;;;;
2020/08/16 04:19:40;;;;;;;1;0.6;;;;;;;15.88;91.94922;935.4378;;;;
2020/08/16 04:22:06;;;;;;;1.6;0.8;;;;;;;15.74;92.7168;935.4952;;;;
2020/08/16 04:24:31;;;;;;;2.1;0.8;;;;;;;15.69;92.98438;935.5119;;;;
2020/08/16 04:27:27;;;;;;;1.5;0.9;;;;;;;15.63;93.0166;935.4709;;;;
2020/08/16 04:29:21;;;;;;;1.4;0.5;;;;;;;15.7;93.0459;935.3945;;;;
2020/08/16 04:31:50;;;;;;;0.6;0.6;;;;;;;15.57;93.20215;935.4055;;;;
2020/08/16 04:34:15;;;;;;;1.1;0.8;;;;;;;15.68;93.05176;935.4294;;;;
2020/08/16 04:36:40;;;;;;;2;0.7;;;;;;;15.85;92.3252;935.4319;;;;
2020/08/16 04:39:05;;;;;;;0.6;0.5;;;;;;;16.01;90.99316;935.5083;;;;
2020/08/16 04:41:32;;;;;;;0.6;0.5;;;;;;;16.05;90.66699;935.5165;;;;
2020/08/16 04:43:58;;;;;;;1.9;1;;;;;;;16.07;90.3125;935.5652;;;;
2020/08/16 04:46:23;;;;;;;1.5;0.7;;;;;;;16.15;89.95898;935.6594;;;;
2020/08/16 04:48:52;;;;;;;0.8;0.4;;;;;;;16.2;89.45996;935.625;;;;
2020/08/16 04:51:19;;;;;;;0.5;0.4;;;;;;;16.15;89.4043;935.5656;;;;
2020/08/16 04:53:49;;;;;;;0.9;0.4;;;;;;;16.02;90.11816;935.574;;;;
2020/08/16 04:56:14;;;;;;;2.3;0.5;;;;;;;16.08;89.86523;935.5096;;;;
2020/08/16 04:58:39;;;;;;;0.9;0.5;;;;;;;16.14;89.92285;935.597;;;;
2020/08/16 05:01:07;;;;;;;5.6;0.7;;;;;;;16.15;90.14453;935.5614;;;;
2020/08/16 05:03:32;;;;;;;2.7;0.7;;;;;;;16.12;90.19629;935.5411;;;;
2020/08/16 05:05:57;;;;;;;0.8;0.5;;;;;;;16.26;89.91406;935.4805;;;;
2020/08/16 05:08:22;;;;;;;1.8;0.5;;;;;;;16.13;90.62598;935.5522;;;;
2020/08/16 05:10:51;;;;;;;1.2;0.6;;;;;;;16.05;90.81738;935.5647;;;;
2020/08/16 05:13:16;;;;;;;0.8;0.6;;;;;;;15.93;91.54492;935.5045;;;;
2020/08/16 05:15:44;;;;;;;0.8;0.6;;;;;;;16.01;91.52539;935.5449;;;;
2020/08/16 05:18:13;;;;;;;0.8;0.6;;;;;;;16.06;91.50195;935.5044;;;;
2020/08/16 05:20:38;;;;;;;1.1;0.8;;;;;;;16.1;90.98926;935.5399;;;;
2020/08/16 05:23:07;;;;;;;1.9;0.7;;;;;;;16.09;90.91797;935.3946;;;;
2020/08/16 05:25:32;;;;;;;1.1;0.8;;;;;;;16.06;90.69238;935.4593;;;;
2020/08/16 05:27:57;;;;;;;2.5;0.8;;;;;;;16.16;90.16895;935.4352;;;;
2020/08/16 05:30:35;;;;;;;3.1;0.9;;;;;;;16.06;90.71582;935.4417;;;;
2020/08/16 05:33:00;;;;;;;0.6;0.6;;;;;;;16.06;91.28223;935.4689;;;;
2020/08/16 05:35:26;;;;;;;1.8;0.8;;;;;;;16.41;90.93848;935.3943;;;;
2020/08/16 05:37:53;;;;;;;0.5;0.3;;;;;;;17.01;88.66406;935.4131;;;;
2020/08/16 05:40:25;;;;;;;0.8;0.7;;;;;;;17.23;87.66406;935.3571;;;;
2020/08/16 05:42:57;;;;;;;0.5;0.5;;;;;;;17.57;86.36328;935.2687;;;;
2020/08/16 05:46:17;;;;;;;1.2;0.7;;;;;;;18.24;82.71777;935.2552;;;;
2020/08/16 05:48:43;;;;;;;0.4;0.3;;;;;;;19.44;78.3291;935.2166;;;;
2020/08/16 05:51:08;;;;;;;0.6;0.6;;;;;;;20.92;71.625;935.1824;;;;
2020/08/16 05:53:33;;;;;;;1;0.8;;;;;;;21.97;67.21191;935.1595;;;;
2020/08/16 05:55:58;;;;;;;0.4;0.4;;;;;;;22.92;63.34961;935.1223;;;;
2020/08/16 05:58:24;;;;;;;0.4;0.4;;;;;;;23.71;61.08594;935.1298;;;;
2020/08/16 06:00:52;;;;;;;0.7;0.4;;;;;;;24.38;59.19824;935.17;;;;
2020/08/16 06:03:21;;;;;;;0.2;0.1;;;;;;;24.8;57.11914;935.1323;;;;
2020/08/16 06:05:46;;;;;;;2.4;0.3;;;;;;;25.48;55.08105;935.0994;;;;
2020/08/16 06:08:11;;;;;;;1;0.4;;;;;;;25.39;54.41992;935.0361;;;;
2020/08/16 06:10:39;;;;;;;6.5;0.5;;;;;;;25.59;54.69141;935.1077;;;;
2020/08/16 06:13:04;;;;;;;0.4;0.4;;;;;;;26.17;53.16602;935.1022;;;;
2020/08/16 06:15:35;;;;;;;0.8;0.3;;;;;;;26.34;52.72363;935.0676;;;;
2020/08/16 06:18:01;;;;;;;0.7;0.3;;;;;;;27.71;50.32129;935.0529;;;;
2020/08/16 06:20:29;;;;;;;0.6;0.5;;;;;;;27.73;48.55469;935.0333;;;;
2020/08/16 06:22:54;;;;;;;0.4;0.3;;;;;;;27.24;49.32031;935.0901;;;;
2020/08/16 06:25:22;;;;;;;0.3;0.2;;;;;;;27.97;49.16309;935.0589;;;;
2020/08/16 06:27:47;;;;;;;0.4;0.3;;;;;;;28.16;46.91406;935.0786;;;;
2020/08/16 06:30:12;;;;;;;1;0.3;;;;;;;28.35;46.94434;935.0767;;;;
2020/08/16 06:32:40;;;;;;;0.3;0.2;;;;;;;29;45.90625;935.0601;;;;
2020/08/16 06:35:05;;;;;;;0.3;0.2;;;;;;;29.42;44.88867;934.98;;;;
2020/08/16 06:37:30;;;;;;;0.2;0.2;;;;;;;28.97;44.85547;935.0109;;;;
2020/08/16 06:39:56;;;;;;;0.6;0.3;;;;;;;29.95;43.59277;934.9819;;;;
2020/08/16 06:42:21;;;;;;;0.2;0.2;;;;;;;29.89;44.91016;935.0309;;;;
2020/08/16 06:44:47;;;;;;;0.3;0.3;;;;;;;30.23;43.23633;934.9939;;;;
2020/08/16 06:47:14;;;;;;;2.5;0.5;;;;;;;30.37;42.3916;934.9907;;;;
2020/08/16 06:49:41;;;;;;;0.2;0.2;;;;;;;30.41;41.63086;934.9233;;;;
2020/08/16 06:52:06;;;;;;;0.6;0.4;;;;;;;31.36;41.04785;934.8856;;;;
2020/08/16 06:54:31;;;;;;;0.7;0.3;;;;;;;31.82;38.40625;934.8547;;;;
2020/08/16 06:56:58;;;;;;;0.5;0.4;;;;;;;31.55;39.97559;934.7947;;;;
2020/08/16 06:59:24;;;;;;;0.3;0.3;;;;;;;31.95;39.05273;934.8278;;;;
2020/08/16 07:01:49;;;;;;;0.2;0.2;;;;;;;31.87;38.63867;934.8204;;;;
2020/08/16 07:04:16;;;;;;;0.7;0.4;;;;;;;31.37;40.1748;934.7917;;;;
2020/08/16 07:06:41;;;;;;;0.1;0.1;;;;;;;30.14;41.42773;934.7495;;;;
2020/08/16 07:09:06;;;;;;;2.8;0.4;;;;;;;29.97;44.63184;934.7186;;;;
2020/08/16 07:11:36;;;;;;;0.2;0.2;;;;;;;29.74;44.34766;934.6978;;;;
2020/08/16 07:14:01;;;;;;;2.3;0.3;;;;;;;30.32;43.92773;934.6744;;;;
2020/08/16 07:16:29;;;;;;;0.6;0.6;;;;;;;30.11;42.35547;934.6951;;;;
2020/08/16 07:18:54;;;;;;;0.8;0.6;;;;;;;30.07;42.4707;934.6258;;;;
2020/08/16 07:21:19;;;;;;;0.2;0.1;;;;;;;31.11;41.24121;934.6481;;;;
2020/08/16 07:23:44;;;;;;;3.3;0.7;;;;;;;31.29;40.80273;934.6301;;;;
2020/08/16 07:26:09;;;;;;;0.4;0.2;;;;;;;31.29;40.36035;934.633;;;;
2020/08/16 07:28:38;;;;;;;0.2;0.2;;;;;;;31.84;40.09766;934.5818;;;;
2020/08/16 07:31:03;;;;;;;0.2;0.2;;;;;;;32.5;37.63574;934.5614;;;;
2020/08/16 07:33:28;;;;;;;4.4;0.4;;;;;;;33.37;36.78223;934.5645;;;;
2020/08/16 07:35:57;;;;;;;1;0.3;;;;;;;33.95;35.03613;934.4349;;;;
2020/08/16 07:38:22;;;;;;;0.3;0.2;;;;;;;34.93;34.25488;934.3716;;;;
2020/08/16 07:40:51;;;;;;;0.3;0.3;;;;;;;34.67;32.40332;934.3356;;;;
2020/08/16 07:43:16;;;;;;;0.3;0.3;;;;;;;35.47;32.02441;934.3527;;;;
2020/08/16 07:45:50;;;;;;;0.3;0.3;;;;;;;35.81;32.21777;934.42;;;;
2020/08/16 07:48:15;;;;;;;0.2;0.2;;;;;;;36.34;30.56152;934.361;;;;
2020/08/16 07:50:42;;;;;;;1.1;0.2;;;;;;;36.05;30.55469;934.3195;;;;
2020/08/16 07:53:08;;;;;;;0.2;0.2;;;;;;;35.8;34.09082;934.2885;;;;
2020/08/16 07:55:39;;;;;;;0.4;0.4;;;;;;;36.92;31.25391;934.3538;;;;
2020/08/16 07:58:04;;;;;;;2.2;0.7;;;;;;;36.9;29.89648;934.3409;;;;
2020/08/16 08:00:30;;;;;;;0.4;0.2;;;;;;;37.85;30.74707;934.3099;;;;
2020/08/16 08:02:55;;;;;;;0.3;0.2;;;;;;;37.93;28.84668;934.3397;;;;
2020/08/16 08:05:24;;;;;;;0.5;0.3;;;;;;;37.41;30.00195;934.267;;;;
2020/08/16 08:07:49;;;;;;;2.5;0.6;;;;;;;37.21;29.72168;934.3264;;;;
2020/08/16 08:10:14;;;;;;;0.2;0.2;;;;;;;37.25;30.41602;934.3298;;;;
2020/08/16 08:12:40;;;;;;;0.4;0.4;;;;;;;37.97;29.52832;934.3603;;;;
2020/08/16 08:15:05;;;;;;;0.2;0.2;;;;;;;37.91;28.5293;934.3074;;;;
2020/08/16 08:17:30;;;;;;;1.1;0.2;;;;;;;39.42;27.95313;934.2872;;;;
2020/08/16 08:19:55;;;;;;;1.6;0.6;;;;;;;40.27;25.99121;934.42;;;;
2020/08/16 08:22:21;;;;;;;0.4;0.4;;;;;;;39.66;28.16211;934.4221;;;;
2020/08/16 08:24:46;;;;;;;0.7;0.2;;;;;;;40.13;28.10645;934.4537;;;;
2020/08/16 08:27:11;;;;;;;0.2;0.2;;;;;;;40.53;27.56934;934.4455;;;;
2020/08/16 08:29:36;;;;;;;0.3;0.3;;;;;;;40.57;26.72852;934.473;;;;
2020/08/16 08:32:01;;;;;;;3.2;0.4;;;;;;;40.74;26.65332;934.4473;;;;
2020/08/16 08:34:26;;;;;;;0.1;0.1;;;;;;;40.52;27.22559;934.4673;;;;
2020/08/16 08:36:52;;;;;;;0.3;0.2;;;;;;;40.48;25.03906;934.4412;;;;
2020/08/16 08:39:17;;;;;;;0.5;0.3;;;;;;;40.43;28.18555;934.4674;;;;
2020/08/16 08:41:43;;;;;;;0.8;0.3;;;;;;;40.4;27.54883;934.4459;;;;
2020/08/16 08:44:08;;;;;;;0.2;0.2;;;;;;;40.45;28.12598;934.4047;;;;
2020/08/16 08:46:33;;;;;;;0.2;0.2;;;;;;;40.38;28.38965;934.4596;;;;
2020/08/16 08:48:59;;;;;;;0.2;0.2;;;;;;;40.01;29.41602;934.425;;;;
2020/08/16 08:51:24;;;;;;;1.2;0.6;;;;;;;40.36;26.33789;934.4469;;;;
2020/08/16 08:53:49;;;;;;;0.1;0.1;;;;;;;40.75;26.03027;934.4567;;;;
2020/08/16 08:56:14;;;;;;;1.2;0.2;;;;;;;40;28.86719;934.4406;;;;
2020/08/16 08:58:39;;;;;;;0.6;0.4;;;;;;;39.35;28.28906;934.4222;;;;
2020/08/16 09:01:04;;;;;;;0.3;0.3;;;;;;;39.54;29.83691;934.421;;;;
2020/08/16 09:03:29;;;;;;;0.2;0.2;;;;;;;38.9;29.47949;934.4497;;;;
2020/08/16 09:05:54;;;;;;;0.2;0.2;;;;;;;38.85;29.25684;934.3875;;;;
2020/08/16 09:08:20;;;;;;;0.2;0.2;;;;;;;38.22;29.32617;934.3775;;;;
2020/08/16 09:10:46;;;;;;;0.5;0.3;;;;;;;38.2;28.79102;934.2992;;;;
2020/08/16 09:13:11;;;;;;;0;0;;;;;;;36.96;31.79004;934.3081;;;;
2020/08/16 09:15:36;;;;;;;0.8;0.4;;;;;;;37.3;32.04492;934.2148;;;;
2020/08/16 09:18:01;;;;;;;2;0.7;;;;;;;37.08;31.81055;934.1905;;;;
2020/08/16 09:20:26;;;;;;;0.9;0.3;;;;;;;36.41;33.67676;934.209;;;;
2020/08/16 09:22:51;;;;;;;0.1;0.1;;;;;;;35.64;35.64844;934.1624;;;;
2020/08/16 09:25:21;;;;;;;0.3;0.2;;;;;;;34.85;34.74316;934.1197;;;;
2020/08/16 09:27:46;;;;;;;0.2;0.2;;;;;;;34.51;37.2959;934.1384;;;;
2020/08/16 09:30:11;;;;;;;0.4;0.4;;;;;;;33.56;39.78027;934.198;;;;
2020/08/16 09:32:36;;;;;;;0.2;0.2;;;;;;;33.58;39.90234;934.1428;;;;
2020/08/16 09:35:01;;;;;;;0.3;0.3;;;;;;;33.49;41.38477;934.1513;;;;
2020/08/16 09:37:26;;;;;;;0.3;0.3;;;;;;;33.01;41.2207;934.115;;;;
2020/08/16 09:39:51;;;;;;;4.7;0.7;;;;;;;32.83;42.56152;934.0908;;;;
2020/08/16 09:42:17;;;;;;;0.4;0.2;;;;;;;32.42;43.77148;934.0958;;;;
2020/08/16 09:44:42;;;;;;;0.5;0.4;;;;;;;32.15;46.93359;934.0496;;;;
2020/08/16 09:47:12;;;;;;;0.5;0.5;;;;;;;32.09;45.89648;934.0272;;;;
2020/08/16 09:49:42;;;;;;;0.4;0.4;;;;;;;32.41;43.38574;934.0619;;;;
2020/08/16 09:52:07;;;;;;;0.2;0.2;;;;;;;32.77;42.33984;934.0422;;;;
2020/08/16 09:54:34;;;;;;;0.7;0.5;;;;;;;32.59;45.27539;934.0662;;;;
2020/08/16 09:56:59;;;;;;;1.3;0.6;;;;;;;32.87;41.92969;934.0514;;;;
2020/08/16 09:59:24;;;;;;;0.4;0.3;;;;;;;33.03;41.06738;934.1277;;;;
2020/08/16 10:01:53;;;;;;;0.4;0.3;;;;;;;33.44;41.29688;934.1244;;;;
2020/08/16 10:04:18;;;;;;;0.3;0.3;;;;;;;33.4;42.60352;934.0825;;;;
2020/08/16 10:06:44;;;;;;;0.4;0.3;;;;;;;33.52;43.21582;934.048;;;;
2020/08/16 10:09:08;;;;;;;0.3;0.3;;;;;;;33.59;43.77539;934.0708;;;;
2020/08/16 10:11:33;;;;;;;0.5;0.4;;;;;;;33.78;41.08691;934.0569;;;;
2020/08/16 10:13:58;;;;;;;0.2;0.2;;;;;;;33.59;42.72852;934.0483;;;;
2020/08/16 10:16:24;;;;;;;0.2;0.2;;;;;;;33.36;41.2041;933.9677;;;;
2020/08/16 10:18:49;;;;;;;0.3;0.3;;;;;;;33.58;42.18652;933.9819;;;;
2020/08/16 10:21:14;;;;;;;0.6;0.5;;;;;;;33.8;40.95605;933.957;;;;
2020/08/16 10:23:39;;;;;;;0.8;0.7;;;;;;;34.42;38.21777;933.9448;;;;
2020/08/16 10:26:05;;;;;;;0.7;0.6;;;;;;;35.05;37.03906;933.9046;;;;
2020/08/16 10:28:30;;;;;;;0.4;0.3;;;;;;;35.7;36.94629;933.9033;;;;
2020/08/16 10:30:55;;;;;;;0.3;0.3;;;;;;;35.8;37.48633;933.8675;;;;
2020/08/16 10:33:22;;;;;;;1.4;1;;;;;;;35.75;38.6416;933.8375;;;;
2020/08/16 10:35:45;;;;;;;0.3;0.3;;;;;;;35.9;37.55469;933.8333;;;;
2020/08/16 10:38:11;;;;;;;0.5;0.3;;;;;;;35.95;35.38379;933.7781;;;;
2020/08/16 10:40:36;;;;;;;6.4;0.8;;;;;;;35.32;39.08887;933.7322;;;;
2020/08/16 10:43:01;;;;;;;0.3;0.3;;;;;;;35.11;39.14355;933.8024;;;;
2020/08/16 10:45:28;;;;;;;0.4;0.4;;;;;;;35.26;39.04688;933.759;;;;
2020/08/16 10:47:54;;;;;;;0.2;0.2;;;;;;;34.9;39.99316;933.7228;;;;
2020/08/16 10:50:18;;;;;;;0.4;0.4;;;;;;;35.51;38.81543;933.7967;;;;
2020/08/16 10:52:44;;;;;;;0.2;0.2;;;;;;;35.92;37.61719;933.6998;;;;
2020/08/16 10:55:13;;;;;;;1.3;0.9;;;;;;;36.34;37.50684;933.7548;;;;
2020/08/16 10:57:38;;;;;;;0.3;0.2;;;;;;;36.42;36.33887;933.738;;;;
2020/08/16 11:00:04;;;;;;;1.1;0.4;;;;;;;36.77;35.53125;933.6719;;;;
2020/08/16 11:02:30;;;;;;;1.4;0.2;;;;;;;36.9;36.58301;933.6464;;;;
2020/08/16 11:04:55;;;;;;;0.1;0.1;;;;;;;36.33;36.82813;933.7503;;;;
2020/08/16 11:07:20;;;;;;;0.4;0.2;;;;;;;36.59;36.40039;933.7834;;;;
2020/08/16 11:09:45;;;;;;;0.4;0.4;;;;;;;35.82;38.09277;933.7605;;;;
2020/08/16 11:12:10;;;;;;;2.7;0.3;;;;;;;34.62;39.5957;933.7637;;;;
2020/08/16 11:14:35;;;;;;;0.5;0.4;;;;;;;33.36;41.91406;933.7755;;;;
2020/08/16 11:17:01;;;;;;;1.5;0.5;;;;;;;32.31;44.98438;933.7913;;;;
2020/08/16 11:19:26;;;;;;;0.2;0.2;;;;;;;31.95;44.63574;933.7006;;;;
2020/08/16 11:21:51;;;;;;;1.2;0.5;;;;;;;31.26;46.68652;933.6967;;;;
2020/08/16 11:24:16;;;;;;;0.3;0.3;;;;;;;30.65;48.42773;933.7308;;;;
2020/08/16 11:26:41;;;;;;;0.7;0.5;;;;;;;30.23;51.17578;933.7531;;;;
2020/08/16 11:29:06;;;;;;;2.6;0.9;;;;;;;29.8;50.99707;933.7517;;;;
2020/08/16 11:31:32;;;;;;;0.2;0.2;;;;;;;29.48;52.47461;933.7374;;;;
2020/08/16 11:33:57;;;;;;;2.6;0.7;;;;;;;29.38;52.7959;933.7867;;;;
2020/08/16 11:36:23;;;;;;;0.8;0.5;;;;;;;29.45;52.50586;933.8348;;;;
2020/08/16 11:38:48;;;;;;;1;0.4;;;;;;;29.42;52.72852;933.7645;;;;
2020/08/16 11:41:13;;;;;;;0.2;0.2;;;;;;;29.28;51.89063;933.8759;;;;
2020/08/16 11:43:38;;;;;;;2;1;;;;;;;29.14;52.61328;933.7869;;;;
2020/08/16 11:46:03;;;;;;;0.4;0.3;;;;;;;29.27;54.47461;933.7333;;;;
2020/08/16 11:48:28;;;;;;;0.2;0.2;;;;;;;29.33;54.24414;933.786;;;;
2020/08/16 11:50:54;;;;;;;0.5;0.4;;;;;;;29.08;53.70117;933.7541;;;;
2020/08/16 11:53:19;;;;;;;0.7;0.4;;;;;;;28.98;53.87988;933.706;;;;
2020/08/16 11:55:44;;;;;;;0.9;0.6;;;;;;;29.01;53.47754;933.7912;;;;
2020/08/16 11:58:09;;;;;;;1.3;0.4;;;;;;;28.99;54.1543;933.7647;;;;
2020/08/16 12:00:34;;;;;;;0.5;0.3;;;;;;;29.05;54.1748;933.7942;;;;
2020/08/16 12:02:59;;;;;;;0.4;0.3;;;;;;;28.8;54.40625;933.7227;;;;
2020/08/16 12:05:24;;;;;;;0.6;0.5;;;;;;;29.36;54.91406;933.6852;;;;
2020/08/16 12:07:49;;;;;;;0.5;0.5;;;;;;;29.77;55.02344;933.7385;;;;
2020/08/16 12:10:17;;;;;;;1;0.5;;;;;;;29.85;53.24414;933.7805;;;;
2020/08/16 12:12:42;;;;;;;0.4;0.3;;;;;;;29.79;51.96191;933.7469;;;;
2020/08/16 12:15:08;;;;;;;0.6;0.6;;;;;;;29.76;52.93652;933.6962;;;;
2020/08/16 12:17:33;;;;;;;0.7;0.5;;;;;;;29.46;55.36719;933.7011;;;;
2020/08/16 12:19:58;;;;;;;0.5;0.4;;;;;;;29.31;55.67188;933.6775;;;;
2020/08/16 12:22:23;;;;;;;3.9;0.7;;;;;;;29.22;56.39746;933.6765;;;;
2020/08/16 12:24:48;;;;;;;1.3;0.7;;;;;;;29.55;55.61719;933.7103;;;;
2020/08/16 12:27:13;;;;;;;0.6;0.5;;;;;;;29.58;55.39453;933.6901;;;;
2020/08/16 12:29:38;;;;;;;1.4;0.7;;;;;;;29.58;55.19141;933.726;;;;
2020/08/16 12:32:03;;;;;;;0.5;0.4;;;;;;;29.47;53.58105;933.704;;;;
2020/08/16 12:34:31;;;;;;;0.6;0.5;;;;;;;29.4;53.6084;933.6741;;;;
2020/08/16 12:36:55;;;;;;;0.5;0.5;;;;;;;29.53;54.93555;933.7483;;;;
2020/08/16 12:39:21;;;;;;;0.7;0.5;;;;;;;29.59;53.70313;933.7583;;;;
2020/08/16 12:41:46;;;;;;;0.5;0.4;;;;;;;29.56;53.8418;933.7992;;;;
2020/08/16 12:44:11;;;;;;;0.2;0.2;;;;;;;29.86;53.41309;933.7952;;;;
2020/08/16 12:46:36;;;;;;;0.5;0.4;;;;;;;29.86;52.87695;933.7477;;;;
2020/08/16 12:49:01;;;;;;;0.4;0.4;;;;;;;29.81;54.45703;933.8381;;;;
2020/08/16 12:51:27;;;;;;;0.7;0.5;;;;;;;29.74;52.71875;933.8038;;;;
2020/08/16 12:53:52;;;;;;;0.5;0.5;;;;;;;29.61;52.63281;933.858;;;;
2020/08/16 12:56:17;;;;;;;1.8;0.7;;;;;;;29.38;53.66602;933.9353;;;;
2020/08/16 12:58:42;;;;;;;0.7;0.7;;;;;;;27.82;64.60547;934.0851;;;;
2020/08/16 13:01:07;;;;;;;0.5;0.4;;;;;;;26.26;62.02832;934.0367;;;;
2020/08/16 13:03:32;;;;;;;4.9;0.5;;;;;;;25.4;60.05371;933.9581;;;;
2020/08/16 13:05:57;;;;;;;0.8;0.5;;;;;;;24.77;62.43457;933.9351;;;;
2020/08/16 13:08:23;;;;;;;0.2;0.2;;;;;;;24.74;66.51172;934.0223;;;;
2020/08/16 13:10:48;;;;;;;1.4;0.5;;;;;;;24.75;68.24512;934.1023;;;;
2020/08/16 13:13:13;;;;;;;0.3;0.3;;;;;;;24.64;65.83496;934.0715;;;;
2020/08/16 13:15:38;;;;;;;2.1;1.1;;;;;;;24.5;68.12402;933.9897;;;;
2020/08/16 13:18:03;;;;;;;0.7;0.5;;;;;;;24.77;68.49707;933.9891;;;;
2020/08/16 13:20:28;;;;;;;0.6;0.6;;;;;;;24.76;68.30664;933.9171;;;;
2020/08/16 13:22:54;;;;;;;0.5;0.5;;;;;;;24.32;70.38184;934.015;;;;
2020/08/16 13:25:19;;;;;;;0.4;0.3;;;;;;;24.29;70.73145;933.9324;;;;
2020/08/16 13:27:44;;;;;;;1.2;0.5;;;;;;;24.5;70.74023;933.9572;;;;
2020/08/16 13:30:09;;;;;;;0.6;0.4;;;;;;;24.48;72.93164;933.9856;;;;
2020/08/16 13:32:34;;;;;;;1.1;0.6;;;;;;;24.63;72.91895;934.0005;;;;
2020/08/16 13:34:59;;;;;;;0.3;0.3;;;;;;;24.72;69.36133;933.9889;;;;
2020/08/16 13:37:24;;;;;;;1.1;0.6;;;;;;;24.43;68.79785;933.8997;;;;
2020/08/16 13:39:50;;;;;;;0.4;0.2;;;;;;;24.34;70.95215;933.8793;;;;
2020/08/16 13:42:16;;;;;;;0.9;0.4;;;;;;;24.63;69.33691;933.8521;;;;
2020/08/16 13:44:44;;;;;;;0.7;0.4;;;;;;;24.73;72.59375;933.872;;;;
2020/08/16 13:47:09;;;;;;;0.1;0.1;;;;;;;25.16;66.08887;933.8525;;;;
2020/08/16 13:49:34;;;;;;;0.6;0.4;;;;;;;25.55;68.22461;933.8459;;;;
2020/08/16 13:52:00;;;;;;;0.6;0.4;;;;;;;26.12;71.37695;933.8325;;;;
2020/08/16 13:54:25;;;;;;;0.6;0.3;;;;;;;26.57;69.29297;933.7441;;;;
2020/08/16 13:56:50;;;;;;;0.1;0.1;;;;;;;26.81;64.70898;933.8354;;;;
2020/08/16 13:59:15;;;;;;;0.4;0.3;;;;;;;26.91;65.10449;933.875;;;;
2020/08/16 14:01:40;;;;;;;1.4;0.5;;;;;;;27.16;64.76172;933.8433;;;;
2020/08/16 14:04:05;;;;;;;0.4;0.4;;;;;;;27.29;66.22656;933.8331;;;;
2020/08/16 14:06:30;;;;;;;0.5;0.3;;;;;;;27.03;64.87207;933.7966;;;;
2020/08/16 14:08:56;;;;;;;0.8;0.3;;;;;;;27.12;66.87598;933.8059;;;;
2020/08/16 14:11:20;;;;;;;1.3;0.6;;;;;;;26.7;68.41309;933.7606;;;;
2020/08/16 14:13:46;;;;;;;0.9;0.4;;;;;;;26.68;71.05078;933.7967;;;;
2020/08/16 14:16:11;;;;;;;0.7;0.5;;;;;;;26.08;73.61621;933.7957;;;;
2020/08/16 14:18:36;;;;;;;0.3;0.2;;;;;;;26.04;74.92383;933.8144;;;;
2020/08/16 14:21:02;;;;;;;0.3;0.3;;;;;;;26.23;74.6709;933.837;;;;
2020/08/16 14:23:28;;;;;;;0.4;0.2;;;;;;;26.18;72.56836;933.7003;;;;
2020/08/16 14:25:53;;;;;;;2.9;0.5;;;;;;;26.07;69.45313;933.6934;;;;
2020/08/16 14:28:19;;;;;;;0.2;0.2;;;;;;;25.81;69.11719;933.6467;;;;
2020/08/16 14:30:48;;;;;;;0.2;0.2;;;;;;;25.77;71.37988;933.6144;;;;
2020/08/16 14:33:13;;;;;;;0.7;0.6;;;;;;;25.82;71.04395;933.665;;;;
2020/08/16 14:35:38;;;;;;;0.5;0.3;;;;;;;25.68;70.50391;933.6431;;;;
2020/08/16 14:38:03;;;;;;;0.5;0.4;;;;;;;25.34;72.44531;933.6295;;;;
2020/08/16 14:40:28;;;;;;;0.7;0.4;;;;;;;24.93;73.41602;933.757;;;;
2020/08/16 14:42:54;;;;;;;0.6;0.3;;;;;;;25.09;74.96582;933.8019;;;;
2020/08/16 14:45:19;;;;;;;0.6;0.3;;;;;;;24.72;75.90625;933.8498;;;;
2020/08/16 14:47:44;;;;;;;0.5;0.4;;;;;;;24.84;75.74902;933.8172;;;;
2020/08/16 14:50:09;;;;;;;0.3;0.2;;;;;;;24.72;75.41016;933.81;;;;
2020/08/16 14:52:34;;;;;;;1.2;0.4;;;;;;;25.01;75.2002;933.8059;;;;
2020/08/16 14:55:00;;;;;;;1;0.5;;;;;;;25.11;75.35938;933.7957;;;;
2020/08/16 14:57:25;;;;;;;0.3;0.3;;;;;;;24.86;76.61328;933.7924;;;;
2020/08/16 14:59:50;;;;;;;0.5;0.4;;;;;;;24.85;76.54102;933.7252;;;;
2020/08/16 15:02:17;;;;;;;0.4;0.4;;;;;;;24.43;78.02539;933.7065;;;;
2020/08/16 15:04:42;;;;;;;0.4;0.3;;;;;;;24.48;78.05762;933.7456;;;;
2020/08/16 15:07:07;;;;;;;0.2;0.2;;;;;;;24.58;77.52148;933.8078;;;;
2020/08/16 15:09:32;;;;;;;0.5;0.3;;;;;;;24.38;77.05078;933.7935;;;;
2020/08/16 15:11:58;;;;;;;0.6;0.3;;;;;;;24.24;78.19238;933.7963;;;;
2020/08/16 15:14:23;;;;;;;0.4;0.2;;;;;;;24.24;76.9668;933.8067;;;;
2020/08/16 15:16:51;;;;;;;0.3;0.3;;;;;;;24.14;77.67871;933.7646;;;;
2020/08/16 15:19:16;;;;;;;0.1;0.1;;;;;;;23.88;79.29395;933.783;;;;
2020/08/16 15:21:42;;;;;;;1.3;0.4;;;;;;;23.86;77.51172;933.7678;;;;
2020/08/16 15:24:08;;;;;;;2.7;1;;;;;;;24.03;77.81445;933.7983;;;;
2020/08/16 15:26:33;;;;;;;0.5;0.2;;;;;;;24.19;77.26563;933.6886;;;;
2020/08/16 15:28:58;;;;;;;0.3;0.2;;;;;;;23.8;79.92871;933.7081;;;;
2020/08/16 15:31:23;;;;;;;0.5;0.5;;;;;;;23.75;80.57813;933.6765;;;;